Time,TemperatureF,DewpointF,PressureIn,WindDirection,WindDirectionDegrees,WindSpeedMPH,WindSpeedGustMPH,Humidity,HourlyPrecipIn,Conditions,Clouds,dailyrainin,SolarRadiationWatts/m^2,SoftwareType,DateUTC
2013-07-11 00:01:00,62.6,58.0,30.33,ESE,109,0.0,0.0,85,0.00,CLR,,0.00,0.0,WeatherDisplay:10.37,2013-07-10 23:01:00,
2013-07-11 00:06:00,62.3,57.7,30.33,ESE,107,1.2,1.2,85,0.00,CLR,,0.00,0.0,WeatherDisplay:10.37,2013-07-10 23:06:00,
2013-07-11 00:11:00,62.0,57.8,30.33,ESE,107,2.3,2.3,86,0.00,CLR,,0.00,0.0,WeatherDisplay:10.37,2013-07-10 23:11:00,
2013-07-11 00:16:00,61.8,57.6,30.33,East,83,2.3,2.3,86,0.00,CLR,,0.00,0.0,WeatherDisplay:10.37,2013-07-10 23:16:00,
2013-07-11 00:21:00,61.5,57.3,30.33,ENE,73,2.3,0.0,86,0.00,CLR,,0.00,0.0,WeatherDisplay:10.37,2013-07-10 23:21:00,
2013-07-11 00:26:00,61.2,57.0,30.33,East,95,3.5,3.5,86,0.00,CLR,,0.00,0.0,WeatherDisplay:10.37,2013-07-10 23:26:00,
2013-07-11 00:32:00,60.9,57.0,30.34,NE,47,2.3,2.3,87,0.00,CLR,,0.00,0.0,WeatherDisplay:10.37,2013-07-10 23:32:00,
2013-07-11 00:37:00,60.7,56.8,30.34,NE,48,2.3,2.3,87,0.00,CLR,,0.00,0.0,WeatherDisplay:10.37,2013-07-10 23:37:00,
2013-07-11 00:42:00,60.4,56.5,30.34,NE,48,2.3,2.3,87,0.00,CLR,,0.00,0.0,WeatherDisplay:10.37,2013-07-10 23:42:00,
2013-07-11 00:47:00,60.1,56.2,30.34,NE,47,2.3,2.3,87,0.00,CLR,,0.00,0.0,WeatherDisplay:10.37,2013-07-10 23:47:00,
2013-07-11 00:52:00,59.8,56.2,30.34,NE,47,0.0,0.0,88,0.00,CLR,,0.00,0.0,WeatherDisplay:10.37,2013-07-10 23:52:00,
2013-07-11 00:57:00,59.5,55.9,30.34,NE,45,3.5,3.5,88,0.00,CLR,,0.00,0.0,WeatherDisplay:10.37,2013-07-10 23:57:00,
2013-07-11 01:03:00,59.2,55.6,30.34,East,96,0.0,0.0,88,0.00,CLR,,0.00,0.0,WeatherDisplay:10.37,2013-07-11 00:03:00,
2013-07-11 01:08:00,59.0,55.4,30.34,ENE,59,3.5,3.5,88,0.00,CLR,,0.00,0.0,WeatherDisplay:10.37,2013-07-11 00:08:00,
2013-07-11 01:13:00,58.7,55.5,30.34,ENE,76,1.2,1.2,89,0.00,CLR,,0.00,0.0,WeatherDisplay:10.37,2013-07-11 00:13:00,
2013-07-11 01:18:00,58.4,55.2,30.34,ENE,75,0.0,0.0,89,0.00,CLR,,0.00,0.0,WeatherDisplay:10.37,2013-07-11 00:18:00,
2013-07-11 01:23:00,58.3,55.1,30.34,ENE,76,2.3,2.3,89,0.00,CLR,,0.00,0.0,WeatherDisplay:10.37,2013-07-11 00:23:00,
2013-07-11 01:29:00,58.0,54.8,30.34,ENE,75,2.3,0.0,89,0.00,CLR,,0.00,0.0,WeatherDisplay:10.37,2013-07-11 00:29:00,
2013-07-11 01:34:00,57.8,54.6,30.34,NE,41,2.3,2.3,89,0.00,CLR,,0.00,0.0,WeatherDisplay:10.37,2013-07-11 00:34:00,
2013-07-11 01:39:00,57.5,54.3,30.34,NE,41,0.0,0.0,89,0.00,CLR,,0.00,0.0,WeatherDisplay:10.37,2013-07-11 00:39:00,
2013-07-11 01:44:00,57.3,54.4,30.34,NE,40,2.3,2.3,90,0.00,CLR,,0.00,0.0,WeatherDisplay:10.37,2013-07-11 00:44:00,
2013-07-11 01:49:00,57.2,54.3,30.34,NE,40,1.0,0.0,90,0.00,CLR,,0.00,0.0,WeatherDisplay:10.37,2013-07-11 00:49:00,
2013-07-11 01:54:00,57.0,54.1,30.34,NE,41,0.0,0.0,90,0.00,CLR,,0.00,0.0,WeatherDisplay:10.37,2013-07-11 00:54:00,
2013-07-11 01:59:00,57.0,54.1,30.34,NE,41,2.3,2.3,90,0.00,CLR,,0.00,0.0,WeatherDisplay:10.37,2013-07-11 00:59:00,
2013-07-11 02:04:00,56.9,54.3,30.34,NE,41,2.3,2.3,91,0.00,CLR,,0.00,0.0,WeatherDisplay:10.37,2013-07-11 01:04:00,
2013-07-11 02:09:00,56.9,54.3,30.34,NE,40,2.3,2.3,91,0.00,CLR,,0.00,0.0,WeatherDisplay:10.37,2013-07-11 01:09:00,
2013-07-11 02:14:00,56.9,54.3,30.34,NE,40,2.3,0.0,91,0.00,CLR,,0.00,0.0,WeatherDisplay:10.37,2013-07-11 01:14:00,
2013-07-11 02:19:00,56.9,54.3,30.33,NE,40,1.2,1.2,91,0.00,CLR,,0.00,0.0,WeatherDisplay:10.37,2013-07-11 01:19:00,
2013-07-11 02:24:00,57.0,54.7,30.33,NE,41,1.0,1.0,92,0.00,CLR,,0.00,0.0,WeatherDisplay:10.37,2013-07-11 01:24:00,
2013-07-11 02:30:00,57.0,54.7,30.33,NE,41,0.0,0.0,92,0.00,CLR,,0.00,0.0,WeatherDisplay:10.37,2013-07-11 01:30:00,
2013-07-11 02:35:00,57.0,54.7,30.33,NE,41,0.0,0.0,92,0.00,CLR,,0.00,0.0,WeatherDisplay:10.37,2013-07-11 01:35:00,
2013-07-11 02:40:00,57.0,54.7,30.33,NE,41,0.0,0.0,92,0.00,CLR,,0.00,0.0,WeatherDisplay:10.37,2013-07-11 01:40:00,
2013-07-11 02:45:00,57.0,54.7,30.33,NE,41,0.0,0.0,92,0.00,CLR,,0.00,0.0,WeatherDisplay:10.37,2013-07-11 01:45:00,
2013-07-11 02:50:00,57.0,54.7,30.33,NE,41,2.3,2.3,92,0.00,CLR,,0.00,0.0,WeatherDisplay:10.37,2013-07-11 01:50:00,
2013-07-11 02:55:00,57.2,54.9,30.33,NE,40,2.3,0.0,92,0.00,CLR,,0.00,0.0,WeatherDisplay:10.37,2013-07-11 01:55:00,
2013-07-11 03:01:00,57.2,54.9,30.33,NE,40,0.0,0.0,92,0.00,CLR,,0.00,0.0,WeatherDisplay:10.37,2013-07-11 02:01:00,
2013-07-11 03:06:00,57.2,54.9,30.33,NE,41,0.0,0.0,92,0.00,CLR,,0.00,0.0,WeatherDisplay:10.37,2013-07-11 02:06:00,
2013-07-11 03:11:00,57.2,54.9,30.33,NE,41,0.0,0.0,92,0.00,CLR,,0.00,0.0,WeatherDisplay:10.37,2013-07-11 02:11:00,
2013-07-11 03:16:00,57.2,54.9,30.33,NE,40,0.0,0.0,92,0.00,CLR,,0.00,0.0,WeatherDisplay:10.37,2013-07-11 02:16:00,
2013-07-11 03:21:00,57.3,55.0,30.33,NE,41,0.0,0.0,92,0.00,CLR,,0.00,0.0,WeatherDisplay:10.37,2013-07-11 02:21:00,
2013-07-11 03:26:00,57.3,55.0,30.33,NE,41,0.0,0.0,92,0.00,CLR,,0.00,0.0,WeatherDisplay:10.37,2013-07-11 02:26:00,
2013-07-11 03:32:00,57.3,55.0,30.33,NE,41,0.0,0.0,92,0.00,CLR,,0.00,0.0,WeatherDisplay:10.37,2013-07-11 02:32:00,
2013-07-11 03:37:00,57.5,55.2,30.33,NE,41,1.2,0.0,92,0.00,CLR,,0.00,0.0,WeatherDisplay:10.37,2013-07-11 02:37:00,
2013-07-11 03:42:00,57.5,55.2,30.33,NE,41,0.0,0.0,92,0.00,CLR,,0.00,0.0,WeatherDisplay:10.37,2013-07-11 02:42:00,
2013-07-11 03:47:00,57.6,55.3,30.33,NE,40,2.3,2.3,92,0.00,CLR,,0.00,0.0,WeatherDisplay:10.37,2013-07-11 02:47:00,
2013-07-11 03:52:00,57.6,55.3,30.33,NE,40,1.2,0.0,92,0.00,CLR,,0.00,0.0,WeatherDisplay:10.37,2013-07-11 02:52:00,
2013-07-11 03:57:00,57.6,55.3,30.33,NE,41,2.3,2.3,92,0.00,CLR,,0.00,0.0,WeatherDisplay:10.37,2013-07-11 02:57:00,
2013-07-11 04:02:00,57.6,55.3,30.33,NE,51,1.2,1.2,92,0.00,CLR,,0.00,0.0,WeatherDisplay:10.37,2013-07-11 03:02:00,
2013-07-11 04:07:00,57.6,55.3,30.33,NE,51,1.2,1.2,92,0.00,CLR,,0.00,0.0,WeatherDisplay:10.37,2013-07-11 03:07:00,
2013-07-11 04:12:00,57.6,55.3,30.33,NE,51,2.3,0.0,92,0.00,CLR,,0.00,0.0,WeatherDisplay:10.37,2013-07-11 03:12:00,
2013-07-11 04:18:00,57.6,55.3,30.33,NE,52,2.3,2.3,92,0.00,OVC,,0.00,0.0,WeatherDisplay:10.37,2013-07-11 03:18:00,
2013-07-11 04:23:00,57.6,55.3,30.33,NE,52,1.2,1.2,92,0.00,OVC,,0.00,0.0,WeatherDisplay:10.37,2013-07-11 03:23:00,
2013-07-11 04:28:00,57.6,55.3,30.33,NE,52,2.3,2.3,92,0.00,OVC,,0.00,0.0,WeatherDisplay:10.37,2013-07-11 03:28:00,
2013-07-11 04:33:00,57.6,55.3,30.32,NE,52,2.3,2.3,92,0.00,OVC,,0.00,0.0,WeatherDisplay:10.37,2013-07-11 03:33:00,
2013-07-11 04:38:00,57.6,55.3,30.33,NE,52,2.0,2.0,92,0.00,OVC,,0.00,0.0,WeatherDisplay:10.37,2013-07-11 03:38:00,
2013-07-11 04:44:00,57.8,55.5,30.33,NE,52,1.2,1.2,92,0.00,OVC,,0.00,5.0,WeatherDisplay:10.37,2013-07-11 03:44:00,
2013-07-11 04:49:00,57.8,55.5,30.32,NE,52,1.2,1.2,92,0.00,OVC,,0.00,5.0,WeatherDisplay:10.37,2013-07-11 03:49:00,
2013-07-11 04:54:00,57.8,55.5,30.32,NE,52,2.3,2.3,92,0.00,OVC,,0.00,5.0,WeatherDisplay:10.37,2013-07-11 03:54:00,
2013-07-11 04:59:00,57.8,55.5,30.33,NE,52,2.3,2.3,92,0.00,OVC,,0.00,5.0,WeatherDisplay:10.37,2013-07-11 03:59:00,
2013-07-11 05:01:00,57.8,55.5,30.33,NE,52,0.0,0.0,92,0.00,OVC,,0.00,7.0,WeatherDisplay:10.37,2013-07-11 04:01:00,
2013-07-11 05:02:00,58.0,55.7,30.33,NE,52,0.0,0.0,92,0.00,OVC,,0.00,7.0,WeatherDisplay:10.37,2013-07-11 04:02:00,
2013-07-11 05:03:00,58.0,55.7,30.33,NE,52,0.0,0.0,92,0.00,OVC,,0.00,7.0,WeatherDisplay:10.37,2013-07-11 04:03:00,
2013-07-11 05:08:00,58.0,55.7,30.32,NE,52,2.3,2.3,92,0.00,OVC,,0.00,9.0,WeatherDisplay:10.37,2013-07-11 04:08:00,
2013-07-11 05:13:00,58.0,55.7,30.32,NE,54,2.3,2.3,92,0.00,OVC,,0.00,11.0,WeatherDisplay:10.37,2013-07-11 04:13:00,
2013-07-11 05:18:00,58.1,55.8,30.32,NE,52,2.3,2.3,92,0.00,OVC,,0.00,11.0,WeatherDisplay:10.37,2013-07-11 04:18:00,
2013-07-11 05:23:00,58.1,55.5,30.32,NE,54,1.2,1.2,91,0.00,OVC,,0.00,12.0,WeatherDisplay:10.37,2013-07-11 04:23:00,
2013-07-11 05:28:00,58.1,55.8,30.32,NE,54,2.0,2.0,92,0.00,CLR,,0.00,14.0,WeatherDisplay:10.37,2013-07-11 04:28:00,
2013-07-11 05:33:00,58.1,55.5,30.32,NE,54,2.3,2.3,91,0.00,CLR,,0.00,16.0,WeatherDisplay:10.37,2013-07-11 04:33:00,
2013-07-11 05:39:00,58.3,55.7,30.32,NE,54,1.2,1.2,91,0.00,CLR,,0.00,18.0,WeatherDisplay:10.37,2013-07-11 04:39:00,
2013-07-11 05:44:00,58.3,55.7,30.32,NE,54,0.0,0.0,91,0.00,FEW,,0.00,19.0,WeatherDisplay:10.37,2013-07-11 04:44:00,
2013-07-11 05:49:00,58.3,55.7,30.32,NE,54,0.0,0.0,91,0.00,SCT,,0.00,23.0,WeatherDisplay:10.37,2013-07-11 04:49:00,
2013-07-11 05:54:00,58.4,55.8,30.32,NE,54,2.0,2.0,91,0.00,SCT,,0.00,28.0,WeatherDisplay:10.37,2013-07-11 04:54:00,
2013-07-11 05:59:00,58.4,55.8,30.32,NE,54,1.2,0.0,91,0.00,SCT,,0.00,28.0,WeatherDisplay:10.37,2013-07-11 04:59:00,
2013-07-11 06:04:00,58.6,56.0,30.32,NE,54,1.0,1.0,91,0.00,SCT,,0.00,30.0,WeatherDisplay:10.37,2013-07-11 05:04:00,
2013-07-11 06:10:00,58.6,56.0,30.32,NE,54,2.3,2.3,91,0.00,SCT,,0.00,33.0,WeatherDisplay:10.37,2013-07-11 05:10:00,
2013-07-11 06:15:00,58.7,56.1,30.32,NE,55,2.3,2.3,91,0.00,BKN,,0.00,39.0,WeatherDisplay:10.37,2013-07-11 05:15:00,
2013-07-11 06:20:00,58.7,56.1,30.32,NE,55,3.5,3.5,91,0.00,BKN,,0.00,40.0,WeatherDisplay:10.37,2013-07-11 05:20:00,
2013-07-11 06:25:00,58.9,56.3,30.32,NE,56,2.3,2.3,91,0.00,BKN,,0.00,44.0,WeatherDisplay:10.37,2013-07-11 05:25:00,
2013-07-11 06:30:00,58.9,56.3,30.32,ENE,66,2.0,2.0,91,0.00,BKN,,0.00,48.0,WeatherDisplay:10.37,2013-07-11 05:30:00,
2013-07-11 06:35:00,59.0,56.4,30.32,ENE,68,2.3,2.3,91,0.00,BKN,,0.00,51.0,WeatherDisplay:10.37,2013-07-11 05:35:00,
2013-07-11 06:40:00,59.0,56.4,30.32,ENE,68,3.5,3.5,91,0.00,SCT,,0.00,60.0,WeatherDisplay:10.37,2013-07-11 05:40:00,
2013-07-11 06:45:00,59.2,56.6,30.32,ENE,68,2.3,2.3,91,0.00,SCT,,0.00,67.0,WeatherDisplay:10.37,2013-07-11 05:45:00,
2013-07-11 06:51:00,59.3,56.4,30.32,ENE,68,1.2,1.2,90,0.00,SCT,,0.00,70.0,WeatherDisplay:10.37,2013-07-11 05:51:00,
2013-07-11 06:56:00,59.5,56.6,30.32,ENE,68,2.3,2.3,90,0.00,SCT,,0.00,81.0,WeatherDisplay:10.37,2013-07-11 05:56:00,
2013-07-11 07:01:00,59.5,56.6,30.32,ENE,71,3.5,3.5,90,0.00,SCT,,0.00,88.0,WeatherDisplay:10.37,2013-07-11 06:01:00,
2013-07-11 07:06:00,59.6,56.7,30.32,ENE,69,2.3,2.3,90,0.00,SCT,,0.00,97.0,WeatherDisplay:10.37,2013-07-11 06:06:00,
2013-07-11 07:11:00,59.8,56.9,30.32,ENE,71,2.3,2.3,90,0.00,SCT,,0.00,93.0,WeatherDisplay:10.37,2013-07-11 06:11:00,
2013-07-11 07:16:00,59.9,57.0,30.32,ENE,75,3.5,3.5,90,0.00,SCT,,0.00,102.0,WeatherDisplay:10.37,2013-07-11 06:16:00,
2013-07-11 07:21:00,60.1,56.8,30.32,NE,52,1.2,1.2,89,0.00,SCT,,0.00,106.0,WeatherDisplay:10.37,2013-07-11 06:21:00,
2013-07-11 07:27:00,60.1,56.8,30.32,East,99,3.0,3.0,89,0.00,BKN,,0.00,109.0,WeatherDisplay:10.37,2013-07-11 06:27:00,
2013-07-11 07:32:00,60.2,56.9,30.32,East,97,2.3,2.3,89,0.00,SCT,,0.00,121.0,WeatherDisplay:10.37,2013-07-11 06:32:00,
2013-07-11 07:37:00,60.4,57.1,30.32,East,96,1.2,1.2,89,0.00,SCT,,0.00,130.0,WeatherDisplay:10.37,2013-07-11 06:37:00,
2013-07-11 07:42:00,60.7,57.4,30.32,East,96,1.2,1.2,89,0.00,SCT,,0.00,141.0,WeatherDisplay:10.37,2013-07-11 06:42:00,
2013-07-11 07:47:00,60.7,57.1,30.32,East,82,2.3,2.3,88,0.00,SCT,,0.00,146.0,WeatherDisplay:10.37,2013-07-11 06:47:00,
2013-07-11 07:53:00,61.0,57.4,30.32,NE,54,3.5,3.5,88,0.00,SCT,,0.00,153.0,WeatherDisplay:10.37,2013-07-11 06:53:00,
2013-07-11 07:58:00,61.3,57.7,30.32,NE,51,1.2,1.2,88,0.00,SCT,,0.00,160.0,WeatherDisplay:10.37,2013-07-11 06:58:00,
2013-07-11 08:03:00,61.5,57.6,30.32,NE,55,3.5,3.5,87,0.00,SCT,,0.00,164.0,WeatherDisplay:10.37,2013-07-11 07:03:00,
2013-07-11 08:08:00,61.6,57.7,30.32,NE,52,1.2,1.2,87,0.00,SCT,,0.00,174.0,WeatherDisplay:10.37,2013-07-11 07:08:00,
2013-07-11 08:13:00,62.0,57.8,30.32,NE,54,1.2,1.2,86,0.00,SCT,,0.00,192.0,WeatherDisplay:10.37,2013-07-11 07:13:00,
2013-07-11 08:18:00,61.8,57.6,30.32,ENE,66,0.0,0.4,86,0.00,SCT,,0.00,195.0,WeatherDisplay:10.37,2013-07-11 07:18:00,
2013-07-11 08:23:00,62.3,58.1,30.32,ENE,65,2.3,0.0,86,0.00,SCT,,0.00,209.0,WeatherDisplay:10.37,2013-07-11 07:23:00,
2013-07-11 08:28:00,62.1,57.5,30.32,ENE,61,0.0,0.0,85,0.00,SCT,,0.00,216.0,WeatherDisplay:10.37,2013-07-11 07:28:00,
2013-07-11 08:34:00,62.3,57.7,30.32,ENE,66,0.0,0.0,85,0.00,SCT,,0.00,239.0,WeatherDisplay:10.37,2013-07-11 07:34:00,
2013-07-11 08:39:00,62.9,58.3,30.32,ENE,66,0.0,0.0,85,0.00,SCT,,0.00,239.0,WeatherDisplay:10.37,2013-07-11 07:39:00,
2013-07-11 08:44:00,63.1,58.2,30.32,ENE,66,0.0,0.0,84,0.00,SCT,,0.00,246.0,WeatherDisplay:10.37,2013-07-11 07:44:00,
2013-07-11 08:49:00,63.4,58.5,30.32,ENE,65,0.0,0.0,84,0.00,SCT,,0.00,273.0,WeatherDisplay:10.37,2013-07-11 07:49:00,
2013-07-11 08:54:00,63.5,58.2,30.32,ENE,66,0.0,0.0,83,0.00,SCT,,0.00,273.0,WeatherDisplay:10.37,2013-07-11 07:54:00,
2013-07-11 08:59:00,63.9,58.6,30.32,ENE,64,2.3,2.3,83,0.00,SCT,,0.00,255.0,WeatherDisplay:10.37,2013-07-11 07:59:00,
2013-07-11 09:04:00,64.0,58.7,30.32,ENE,62,1.2,1.2,83,0.00,SCT,,0.00,280.0,WeatherDisplay:10.37,2013-07-11 08:04:00,
2013-07-11 09:09:00,64.5,59.2,30.32,ENE,64,3.0,3.0,83,0.00,SCT,,0.00,290.0,WeatherDisplay:10.37,2013-07-11 08:09:00,
2013-07-11 09:14:00,64.0,58.7,30.32,NE,47,2.3,2.3,83,0.00,SCT,,0.00,289.0,WeatherDisplay:10.37,2013-07-11 08:14:00,
2013-07-11 09:19:00,64.0,59.1,30.32,NE,44,0.0,0.0,84,0.00,SCT,,0.00,304.0,WeatherDisplay:10.37,2013-07-11 08:19:00,
2013-07-11 09:24:00,64.5,59.2,30.32,NE,55,2.3,2.3,83,0.00,SCT,,0.00,313.0,WeatherDisplay:10.37,2013-07-11 08:24:00,
2013-07-11 09:29:00,65.3,59.7,30.32,NE,56,1.2,0.0,82,0.00,SCT,,0.00,345.0,WeatherDisplay:10.37,2013-07-11 08:29:00,
2013-07-11 09:34:00,65.2,59.2,30.32,NE,51,0.0,0.0,81,0.00,SCT,,0.00,368.0,WeatherDisplay:10.37,2013-07-11 08:34:00,
2013-07-11 09:39:00,66.0,60.7,30.32,NE,51,1.2,0.0,83,0.00,SCT,,0.00,389.0,WeatherDisplay:10.37,2013-07-11 08:39:00,
2013-07-11 09:44:00,66.9,60.2,30.32,ENE,61,2.3,0.0,79,0.00,SCT,,0.00,405.0,WeatherDisplay:10.37,2013-07-11 08:44:00,
2013-07-11 09:50:00,67.1,60.4,30.32,ENE,65,2.3,2.3,79,0.00,SCT,,0.00,396.0,WeatherDisplay:10.37,2013-07-11 08:50:00,
2013-07-11 09:55:00,66.9,60.5,30.32,ENE,65,0.0,0.0,80,0.00,SCT,,0.00,387.0,WeatherDisplay:10.37,2013-07-11 08:55:00,
2013-07-11 10:00:00,66.8,60.8,30.32,ENE,64,2.3,2.3,81,0.00,SCT,,0.00,424.0,WeatherDisplay:10.37,2013-07-11 09:00:00,
2013-07-11 10:05:00,67.3,60.9,30.31,ENE,65,1.2,0.0,80,0.00,FEW,,0.00,494.0,WeatherDisplay:10.37,2013-07-11 09:05:00,
2013-07-11 10:10:00,67.9,61.1,30.31,ENE,65,0.0,0.0,79,0.00,FEW,,0.00,505.0,WeatherDisplay:10.37,2013-07-11 09:10:00,
2013-07-11 10:15:00,67.8,61.4,30.31,ENE,65,1.2,1.2,80,0.00,CLR,,0.00,584.0,WeatherDisplay:10.37,2013-07-11 09:15:00,
2013-07-11 10:20:00,68.4,61.6,30.31,SW,236,0.0,0.0,79,0.00,FEW,,0.00,519.0,WeatherDisplay:10.37,2013-07-11 09:20:00,
2013-07-11 10:25:00,69.6,62.4,30.31,North,0,3.5,3.5,78,0.00,FEW,,0.00,537.0,WeatherDisplay:10.37,2013-07-11 09:25:00,
2013-07-11 10:30:00,69.9,62.4,30.31,North,349,2.3,2.3,77,0.00,CLR,,0.00,663.0,WeatherDisplay:10.37,2013-07-11 09:30:00,
2013-07-11 10:36:00,70.3,62.7,30.31,SSE,147,1.2,1.2,77,0.00,CLR,,0.00,702.0,WeatherDisplay:10.37,2013-07-11 09:36:00,
2013-07-11 10:41:00,70.4,62.8,30.31,ESE,102,4.0,4.0,77,0.00,CLR,,0.00,663.0,WeatherDisplay:10.37,2013-07-11 09:41:00,
2013-07-11 10:46:00,70.6,63.4,30.30,East,96,3.5,3.5,78,0.00,BKN,,0.00,406.0,WeatherDisplay:10.37,2013-07-11 09:46:00,
2013-07-11 10:51:00,70.8,63.6,30.30,East,100,0.0,0.0,78,0.00,SCT,,0.00,465.0,WeatherDisplay:10.37,2013-07-11 09:51:00,
2013-07-11 10:56:00,71.3,63.7,30.30,East,97,0.0,0.1,77,0.00,SCT,,0.00,533.0,WeatherDisplay:10.37,2013-07-11 09:56:00,
2013-07-11 11:01:00,71.5,64.6,30.30,SSE,165,3.0,3.0,79,0.00,SCT,,0.00,533.0,WeatherDisplay:10.37,2013-07-11 10:01:00,
2013-07-11 11:07:00,71.8,64.2,30.30,North,350,2.3,2.3,77,0.00,SCT,,0.00,440.0,WeatherDisplay:10.37,2013-07-11 10:07:00,
2013-07-11 11:12:00,71.6,63.6,30.30,SW,233,3.0,3.0,76,0.00,BKN,,0.00,377.0,WeatherDisplay:10.37,2013-07-11 10:12:00,
2013-07-11 11:17:00,71.5,63.9,30.30,NW,319,0.0,0.0,77,0.00,SCT,,0.00,433.0,WeatherDisplay:10.37,2013-07-11 10:17:00,
2013-07-11 11:22:00,72.0,64.4,30.30,North,357,2.3,2.3,77,0.00,BKN,,0.00,399.0,WeatherDisplay:10.37,2013-07-11 10:22:00,
2013-07-11 11:27:00,72.1,64.9,30.30,North,353,4.0,4.0,78,0.00,BKN,,0.00,401.0,WeatherDisplay:10.37,2013-07-11 10:27:00,
2013-07-11 11:32:00,72.0,64.4,30.30,WNW,284,0.0,0.0,77,0.00,BKN,,0.00,424.0,WeatherDisplay:10.37,2013-07-11 10:32:00,
2013-07-11 11:38:00,72.3,65.1,30.30,NW,315,3.5,3.5,78,0.00,BKN,,0.00,405.0,WeatherDisplay:10.37,2013-07-11 10:38:00,
2013-07-11 11:43:00,72.3,65.1,30.30,SW,229,4.6,4.6,78,0.00,BKN,,0.00,343.0,WeatherDisplay:10.37,2013-07-11 10:43:00,
2013-07-11 11:48:00,72.3,64.7,30.30,North,352,1.2,1.2,77,0.00,SCT,,0.00,477.0,WeatherDisplay:10.37,2013-07-11 10:48:00,
2013-07-11 11:53:00,72.8,65.2,30.30,WSW,258,3.5,3.5,77,0.00,BKN,,0.00,774.0,WeatherDisplay:10.37,2013-07-11 10:53:00,
2013-07-11 11:58:00,72.8,64.8,30.30,WSW,244,5.8,5.8,76,0.00,BKN,,0.00,338.0,WeatherDisplay:10.37,2013-07-11 10:58:00,
2013-07-11 12:03:00,72.8,65.5,30.30,SW,226,1.2,1.2,78,0.00,BKN,,0.00,352.0,WeatherDisplay:10.37,2013-07-11 11:03:00,
2013-07-11 12:08:00,72.5,64.9,30.30,WNW,301,6.9,6.9,77,0.00,OVC,,0.00,317.0,WeatherDisplay:10.37,2013-07-11 11:08:00,
2013-07-11 12:14:00,73.0,65.7,30.30,North,349,4.6,4.6,78,0.00,CLR,,0.00,940.0,WeatherDisplay:10.37,2013-07-11 11:14:00,
2013-07-11 12:19:00,73.3,65.3,30.30,North,0,1.2,1.2,76,0.00,BKN,,0.00,431.0,WeatherDisplay:10.37,2013-07-11 11:19:00,
2013-07-11 12:24:00,74.0,65.6,30.30,North,349,6.9,6.9,75,0.00,OVC,,0.00,331.0,WeatherDisplay:10.37,2013-07-11 11:24:00,
2013-07-11 12:29:00,73.7,66.0,30.30,SW,232,3.5,3.5,77,0.00,OVC,,0.00,322.0,WeatherDisplay:10.37,2013-07-11 11:29:00,
2013-07-11 12:34:00,73.9,65.5,30.30,North,349,5.8,5.8,75,0.00,SCT,,0.00,588.0,WeatherDisplay:10.37,2013-07-11 11:34:00,
2013-07-11 12:39:00,74.4,66.0,30.30,North,353,4.6,4.6,75,0.00,OVC,,0.00,320.0,WeatherDisplay:10.37,2013-07-11 11:39:00,
2013-07-11 12:44:00,74.4,66.0,30.30,North,349,5.0,5.0,75,0.00,OVC,,0.00,764.0,WeatherDisplay:10.37,2013-07-11 11:44:00,
2013-07-11 12:49:00,74.7,65.5,30.30,North,356,3.5,3.5,73,0.00,CLR,,0.00,892.0,WeatherDisplay:10.37,2013-07-11 11:49:00,
2013-07-11 12:55:00,74.7,65.9,30.30,WNW,285,3.5,3.5,74,0.00,OVC,,0.00,341.0,WeatherDisplay:10.37,2013-07-11 11:55:00,
2013-07-11 13:00:00,74.2,65.8,30.30,NW,318,2.0,8.0,75,0.00,BKN,,0.00,431.0,WeatherDisplay:10.37,2013-07-11 12:00:00,
2013-07-11 13:05:00,75.1,65.9,30.30,WNW,295,3.5,3.5,73,0.00,BKN,,0.00,315.0,WeatherDisplay:10.37,2013-07-11 12:05:00,
2013-07-11 13:10:00,74.4,65.2,30.30,North,0,3.5,3.5,73,0.00,CLR,,0.00,908.0,WeatherDisplay:10.37,2013-07-11 12:10:00,
2013-07-11 13:15:00,74.6,65.8,30.29,SW,236,5.8,5.8,74,0.00,CLR,,0.00,950.0,WeatherDisplay:10.37,2013-07-11 12:15:00,
2013-07-11 13:20:00,75.3,66.4,30.30,North,356,3.5,3.5,74,0.00,CLR,,0.00,871.0,WeatherDisplay:10.37,2013-07-11 12:20:00,
2013-07-11 13:25:00,75.4,66.1,30.29,NW,308,4.6,4.6,73,0.00,CLR,,0.00,878.0,WeatherDisplay:10.37,2013-07-11 12:25:00,
2013-07-11 13:31:00,75.6,65.9,30.29,WSW,254,6.0,6.0,72,0.00,CLR,,0.00,931.0,WeatherDisplay:10.37,2013-07-11 12:31:00,
2013-07-11 13:36:00,75.3,66.4,30.29,SW,232,2.3,2.3,74,0.00,CLR,,0.00,931.0,WeatherDisplay:10.37,2013-07-11 12:36:00,
2013-07-11 13:41:00,75.4,66.1,30.29,North,353,5.8,5.8,73,0.00,CLR,,0.00,924.0,WeatherDisplay:10.37,2013-07-11 12:41:00,
2013-07-11 13:46:00,74.7,65.5,30.29,WSW,258,1.2,0.0,73,0.00,OVC,,0.00,350.0,WeatherDisplay:10.37,2013-07-11 12:46:00,
2013-07-11 13:51:00,76.1,67.2,30.29,North,353,11.5,11.5,74,0.00,CLR,,0.00,994.0,WeatherDisplay:10.37,2013-07-11 12:51:00,
2013-07-11 13:57:00,75.8,66.9,30.29,North,356,6.9,6.9,74,0.00,OVC,,0.00,308.0,WeatherDisplay:10.37,2013-07-11 12:57:00,
2013-07-11 14:02:00,75.8,66.1,30.29,SSE,162,6.9,6.9,72,0.00,FEW,,0.00,823.0,WeatherDisplay:10.37,2013-07-11 13:02:00,
2013-07-11 14:07:00,76.1,66.0,30.29,North,354,6.0,6.0,71,0.00,FEW,,0.00,461.0,WeatherDisplay:10.37,2013-07-11 13:07:00,
2013-07-11 14:13:00,76.0,66.7,30.29,SW,234,6.9,6.9,73,0.00,BKN,,0.00,816.0,WeatherDisplay:10.37,2013-07-11 13:13:00,
2013-07-11 14:18:00,76.7,66.6,30.29,North,359,4.6,4.6,71,0.00,FEW,,0.00,772.0,WeatherDisplay:10.37,2013-07-11 13:18:00,
2013-07-11 14:23:00,76.3,66.2,30.29,WSW,239,5.8,5.8,71,0.00,FEW,,0.00,792.0,WeatherDisplay:10.37,2013-07-11 13:23:00,
2013-07-11 14:28:00,75.8,66.5,30.29,North,356,4.6,4.6,73,0.00,FEW,,0.00,771.0,WeatherDisplay:10.37,2013-07-11 13:28:00,
2013-07-11 14:34:00,75.6,65.5,30.28,WNW,299,5.8,5.8,71,0.00,FEW,,0.00,748.0,WeatherDisplay:10.37,2013-07-11 13:34:00,
2013-07-11 14:39:00,76.0,66.3,30.29,North,353,6.0,6.0,72,0.00,FEW,,0.00,792.0,WeatherDisplay:10.37,2013-07-11 13:39:00,
2013-07-11 14:44:00,76.5,66.4,30.28,NNW,329,6.9,6.9,71,0.00,SCT,,0.00,663.0,WeatherDisplay:10.37,2013-07-11 13:44:00,
2013-07-11 14:49:00,76.3,66.2,30.28,West,264,6.9,6.9,71,0.00,FEW,,0.00,778.0,WeatherDisplay:10.37,2013-07-11 13:49:00,
2013-07-11 14:54:00,76.5,66.0,30.28,West,272,3.5,3.5,70,0.00,FEW,,0.00,767.0,WeatherDisplay:10.37,2013-07-11 13:54:00,
2013-07-11 14:59:00,76.8,66.7,30.28,North,356,6.0,6.0,71,0.00,FEW,,0.00,750.0,WeatherDisplay:10.37,2013-07-11 13:59:00,
2013-07-11 15:04:00,77.2,66.7,30.28,SW,222,6.0,6.0,70,0.00,FEW,,0.00,755.0,WeatherDisplay:10.37,2013-07-11 14:04:00,
2013-07-11 15:10:00,76.5,66.4,30.28,North,357,8.1,8.1,71,0.00,FEW,,0.00,744.0,WeatherDisplay:10.37,2013-07-11 14:10:00,
2013-07-11 15:15:00,76.5,66.4,30.28,North,356,11.5,11.5,71,0.00,FEW,,0.00,711.0,WeatherDisplay:10.37,2013-07-11 14:15:00,
2013-07-11 15:20:00,76.1,66.0,30.28,NW,315,5.8,5.8,71,0.00,FEW,,0.00,737.0,WeatherDisplay:10.37,2013-07-11 14:20:00,
2013-07-11 15:25:00,76.1,66.0,30.27,NNW,347,5.8,5.8,71,0.00,SCT,,0.00,670.0,WeatherDisplay:10.37,2013-07-11 14:25:00,
2013-07-11 15:31:00,76.5,66.4,30.28,WNW,296,5.8,5.8,71,0.00,FEW,,0.00,663.0,WeatherDisplay:10.37,2013-07-11 14:31:00,
2013-07-11 15:36:00,75.8,65.7,30.27,WNW,285,2.3,3.2,71,0.00,SCT,,0.00,639.0,WeatherDisplay:10.37,2013-07-11 14:36:00,
2013-07-11 15:41:00,76.1,66.4,30.27,WNW,301,6.0,6.0,72,0.00,SCT,,0.00,633.0,WeatherDisplay:10.37,2013-07-11 14:41:00,
2013-07-11 15:46:00,76.5,66.8,30.27,North,356,4.0,4.0,72,0.00,FEW,,0.00,670.0,WeatherDisplay:10.37,2013-07-11 14:46:00,
2013-07-11 15:51:00,76.3,66.2,30.27,SW,217,5.8,5.8,71,0.00,FEW,,0.00,651.0,WeatherDisplay:10.37,2013-07-11 14:51:00,
2013-07-11 15:56:00,76.3,66.2,30.27,North,354,5.0,5.0,71,0.00,SCT,,0.00,625.0,WeatherDisplay:10.37,2013-07-11 14:56:00,
2013-07-11 16:02:00,76.1,66.0,30.27,West,265,6.9,6.9,71,0.00,SCT,,0.00,570.0,WeatherDisplay:10.37,2013-07-11 15:02:00,
2013-07-11 16:07:00,76.5,66.8,30.27,North,359,3.5,3.5,72,0.00,SCT,,0.00,517.0,WeatherDisplay:10.37,2013-07-11 15:07:00,
2013-07-11 16:12:00,75.8,66.1,30.27,SW,220,4.6,4.6,72,0.00,SCT,,0.00,473.0,WeatherDisplay:10.37,2013-07-11 15:12:00,
2013-07-11 16:17:00,75.1,65.9,30.27,North,357,3.5,3.5,73,0.00,SCT,,0.00,475.0,WeatherDisplay:10.37,2013-07-11 15:17:00,
2013-07-11 16:22:00,75.4,66.1,30.27,WNW,296,5.8,5.8,73,0.00,SCT,,0.00,433.0,WeatherDisplay:10.37,2013-07-11 15:22:00,
2013-07-11 16:27:00,75.3,66.0,30.27,WNW,285,4.6,4.6,73,0.00,SCT,,0.00,501.0,WeatherDisplay:10.37,2013-07-11 15:27:00,
2013-07-11 16:32:00,75.8,66.5,30.27,NNW,336,6.9,6.9,73,0.00,SCT,,0.00,487.0,WeatherDisplay:10.37,2013-07-11 15:32:00,
2013-07-11 16:38:00,75.8,66.5,30.27,North,357,4.6,4.6,73,0.00,SCT,,0.00,491.0,WeatherDisplay:10.37,2013-07-11 15:38:00,
2013-07-11 16:44:00,75.6,65.9,30.27,West,272,6.9,6.9,72,0.00,SCT,,0.00,524.0,WeatherDisplay:10.37,2013-07-11 15:44:00,
2013-07-11 16:49:00,75.6,65.5,30.26,WSW,239,2.0,2.0,71,0.00,SCT,,0.00,491.0,WeatherDisplay:10.37,2013-07-11 15:49:00,
2013-07-11 16:55:00,75.6,65.9,30.26,WSW,241,3.5,3.5,72,0.00,SCT,,0.00,468.0,WeatherDisplay:10.37,2013-07-11 15:55:00,
2013-07-11 17:00:00,75.3,65.6,30.27,WSW,239,5.8,5.8,72,0.00,SCT,,0.00,519.0,WeatherDisplay:10.37,2013-07-11 16:00:00,
2013-07-11 17:06:00,75.4,66.9,30.26,North,359,3.0,3.0,75,0.00,SCT,,0.00,493.0,WeatherDisplay:10.37,2013-07-11 16:06:00,
2013-07-11 17:12:00,75.4,66.1,30.26,WNW,284,4.6,4.6,73,0.00,SCT,,0.00,484.0,WeatherDisplay:10.37,2013-07-11 16:12:00,
2013-07-11 17:18:00,75.8,66.5,30.26,North,359,4.0,4.0,73,0.00,SCT,,0.00,496.0,WeatherDisplay:10.37,2013-07-11 16:18:00,
2013-07-11 17:23:00,75.6,66.7,30.26,West,265,7.0,7.0,74,0.00,FEW,,0.00,493.0,WeatherDisplay:10.37,2013-07-11 16:23:00,
2013-07-11 17:28:00,75.4,66.1,30.26,NW,309,3.5,3.5,73,0.00,SCT,,0.00,440.0,WeatherDisplay:10.37,2013-07-11 16:28:00,
2013-07-11 17:33:00,75.1,66.2,30.26,North,359,8.1,8.1,74,0.00,SCT,,0.00,435.0,WeatherDisplay:10.37,2013-07-11 16:33:00,
2013-07-11 17:39:00,75.1,66.2,30.26,WNW,284,10.4,10.4,74,0.00,SCT,,0.00,436.0,WeatherDisplay:10.37,2013-07-11 16:39:00,
2013-07-11 17:44:00,75.4,66.5,30.26,North,356,6.9,6.9,74,0.00,SCT,,0.00,433.0,WeatherDisplay:10.37,2013-07-11 16:44:00,
2013-07-11 17:49:00,75.4,66.1,30.26,West,260,5.0,5.0,73,0.00,SCT,,0.00,422.0,WeatherDisplay:10.37,2013-07-11 16:49:00,
2013-07-11 17:54:00,75.4,66.5,30.26,West,272,7.0,7.0,74,0.00,SCT,,0.00,405.0,WeatherDisplay:10.37,2013-07-11 16:54:00,
2013-07-11 18:01:00,75.1,66.2,30.25,West,268,4.6,4.6,74,0.00,SCT,,0.00,380.0,WeatherDisplay:10.37,2013-07-11 17:01:00,
2013-07-11 18:06:00,74.9,66.4,30.25,North,354,6.0,6.0,75,0.00,SCT,,0.00,359.0,WeatherDisplay:10.37,2013-07-11 17:06:00,
2013-07-11 18:11:00,74.7,66.6,30.25,NNW,344,6.9,6.9,76,0.00,SCT,,0.00,326.0,WeatherDisplay:10.37,2013-07-11 17:11:00,
2013-07-11 18:16:00,74.4,66.0,30.25,SW,233,4.6,4.6,75,0.00,SCT,,0.00,340.0,WeatherDisplay:10.37,2013-07-11 17:16:00,
2013-07-11 18:21:00,74.0,66.0,30.25,SW,227,4.6,4.6,76,0.00,SCT,,0.00,336.0,WeatherDisplay:10.37,2013-07-11 17:21:00,
2013-07-11 18:26:00,74.2,66.1,30.25,NW,320,6.0,6.0,76,0.00,SCT,,0.00,331.0,WeatherDisplay:10.37,2013-07-11 17:26:00,
2013-07-11 18:32:00,74.6,66.5,30.25,North,357,2.3,2.3,76,0.00,SCT,,0.00,292.0,WeatherDisplay:10.37,2013-07-11 17:32:00,
2013-07-11 18:37:00,74.0,66.3,30.25,WNW,302,4.6,4.6,77,0.00,SCT,,0.00,290.0,WeatherDisplay:10.37,2013-07-11 17:37:00,
2013-07-11 18:42:00,73.7,65.7,30.25,North,359,4.6,4.6,76,0.00,SCT,,0.00,282.0,WeatherDisplay:10.37,2013-07-11 17:42:00,
2013-07-11 18:47:00,73.7,65.7,30.25,North,354,2.3,2.4,76,0.00,BKN,,0.00,230.0,WeatherDisplay:10.37,2013-07-11 17:47:00,
2013-07-11 18:52:00,73.7,66.0,30.25,WSW,241,6.0,6.0,77,0.00,SCT,,0.00,211.0,WeatherDisplay:10.37,2013-07-11 17:52:00,
2013-07-11 18:58:00,73.3,65.7,30.25,NW,315,5.0,5.0,77,0.00,BKN,,0.00,199.0,WeatherDisplay:10.37,2013-07-11 17:58:00,
2013-07-11 19:03:00,72.8,65.2,30.25,West,278,6.9,6.9,77,0.00,BKN,,0.00,201.0,WeatherDisplay:10.37,2013-07-11 18:03:00,
2013-07-11 19:08:00,72.5,65.2,30.25,North,357,10.4,10.4,78,0.00,BKN,,0.00,185.0,WeatherDisplay:10.37,2013-07-11 18:08:00,
2013-07-11 19:14:00,72.1,64.9,30.25,North,359,4.6,4.6,78,0.00,BKN,,0.00,157.0,WeatherDisplay:10.37,2013-07-11 18:14:00,
2013-07-11 19:19:00,71.8,64.6,30.25,North,356,3.5,3.5,78,0.00,BKN,,0.00,153.0,WeatherDisplay:10.37,2013-07-11 18:19:00,
2013-07-11 19:24:00,71.5,64.6,30.25,WNW,287,2.3,2.3,79,0.00,BKN,,0.00,139.0,WeatherDisplay:10.37,2013-07-11 18:24:00,
2013-07-11 19:29:00,71.1,64.6,30.25,WSW,246,3.5,3.5,80,0.00,BKN,,0.00,134.0,WeatherDisplay:10.37,2013-07-11 18:29:00,
2013-07-11 19:35:00,71.1,64.6,30.25,WSW,253,1.2,0.0,80,0.00,BKN,,0.00,132.0,WeatherDisplay:10.37,2013-07-11 18:35:00,
2013-07-11 19:40:00,71.1,65.0,30.25,WNW,291,3.5,3.5,81,0.00,BKN,,0.00,141.0,WeatherDisplay:10.37,2013-07-11 18:40:00,
2013-07-11 19:45:00,70.9,64.8,30.25,WNW,299,5.8,5.8,81,0.00,BKN,,0.00,139.0,WeatherDisplay:10.37,2013-07-11 18:45:00,
2013-07-11 19:51:00,70.8,64.3,30.25,WSW,248,4.6,4.6,80,0.00,BKN,,0.00,130.0,WeatherDisplay:10.37,2013-07-11 18:51:00,
2013-07-11 19:56:00,70.4,64.3,30.25,North,354,2.3,2.3,81,0.00,BKN,,0.00,134.0,WeatherDisplay:10.37,2013-07-11 18:56:00,
2013-07-11 20:01:00,70.4,64.3,30.25,West,267,3.5,3.5,81,0.00,SCT,,0.00,137.0,WeatherDisplay:10.37,2013-07-11 19:01:00,
2013-07-11 20:06:00,70.3,64.2,30.25,WSW,244,3.5,3.5,81,0.00,SCT,,0.00,153.0,WeatherDisplay:10.37,2013-07-11 19:06:00,
2013-07-11 20:11:00,70.1,64.0,30.25,North,357,5.8,5.8,81,0.00,SCT,,0.00,144.0,WeatherDisplay:10.37,2013-07-11 19:11:00,
2013-07-11 20:17:00,70.1,64.0,30.25,NNW,335,3.0,3.0,81,0.00,SCT,,0.00,120.0,WeatherDisplay:10.37,2013-07-11 19:17:00,
2013-07-11 20:22:00,70.1,64.3,30.25,West,271,1.2,1.2,82,0.00,SCT,,0.00,109.0,WeatherDisplay:10.37,2013-07-11 19:22:00,
2013-07-11 20:27:00,70.1,64.3,30.25,NNW,332,4.6,4.6,82,0.00,BKN,,0.00,97.0,WeatherDisplay:10.37,2013-07-11 19:27:00,
2013-07-11 20:32:00,70.1,64.7,30.25,WNW,301,5.0,5.0,83,0.00,BKN,,0.00,90.0,WeatherDisplay:10.37,2013-07-11 19:32:00,
2013-07-11 20:37:00,70.1,64.7,30.25,WNW,288,3.5,3.5,83,0.00,BKN,,0.00,84.0,WeatherDisplay:10.37,2013-07-11 19:37:00,
2013-07-11 20:43:00,69.9,64.5,30.25,North,0,3.5,3.5,83,0.00,BKN,,0.00,72.0,WeatherDisplay:10.37,2013-07-11 19:43:00,
2013-07-11 20:48:00,69.6,64.5,30.25,WSW,256,3.5,3.5,84,0.00,BKN,,0.00,72.0,WeatherDisplay:10.37,2013-07-11 19:48:00,
2013-07-11 20:53:00,69.3,64.3,30.25,SW,230,3.5,3.5,84,0.00,BKN,,0.00,60.0,WeatherDisplay:10.37,2013-07-11 19:53:00,
2013-07-11 20:58:00,68.9,64.2,30.25,West,271,4.6,4.6,85,0.00,BKN,,0.00,49.0,WeatherDisplay:10.37,2013-07-11 19:58:00,
2013-07-11 21:03:00,68.6,63.9,30.25,NNW,347,2.3,2.3,85,0.00,OVC,,0.00,40.0,WeatherDisplay:10.37,2013-07-11 20:03:00,
2013-07-11 21:09:00,68.3,63.9,30.25,NW,309,5.8,5.8,86,0.00,OVC,,0.00,35.0,WeatherDisplay:10.37,2013-07-11 20:09:00,
2013-07-11 21:14:00,67.9,63.6,30.25,WNW,284,3.5,3.5,86,0.00,OVC,,0.00,30.0,WeatherDisplay:10.37,2013-07-11 20:14:00,
2013-07-11 21:19:00,67.6,63.6,30.25,North,0,3.5,3.5,87,0.00,OVC,,0.00,23.0,WeatherDisplay:10.37,2013-07-11 20:19:00,
2013-07-11 21:25:00,67.3,63.3,30.25,WNW,291,2.3,2.3,87,0.00,OVC,,0.00,19.0,WeatherDisplay:10.37,2013-07-11 20:25:00,
2013-07-11 21:30:00,66.9,63.2,30.25,West,281,4.6,4.6,88,0.00,OVC,,0.00,18.0,WeatherDisplay:10.37,2013-07-11 20:30:00,
2013-07-11 21:35:00,66.6,62.9,30.25,WNW,301,1.2,0.0,88,0.00,OVC,,0.00,16.0,WeatherDisplay:10.37,2013-07-11 20:35:00,
2013-07-11 21:40:00,66.3,63.0,30.25,North,0,2.3,2.3,89,0.00,OVC,,0.00,11.0,WeatherDisplay:10.37,2013-07-11 20:40:00,
2013-07-11 21:45:00,66.1,62.8,30.25,WNW,294,2.0,2.0,89,0.00,OVC,,0.00,9.0,WeatherDisplay:10.37,2013-07-11 20:45:00,
2013-07-11 21:51:00,65.8,62.5,30.25,North,353,2.0,2.0,89,0.00,OVC,,0.00,7.0,WeatherDisplay:10.37,2013-07-11 20:51:00,
2013-07-11 21:56:00,65.6,62.3,30.25,West,264,2.3,2.3,89,0.00,OVC,,0.00,7.0,WeatherDisplay:10.37,2013-07-11 20:56:00,
2013-07-11 22:01:00,65.3,62.0,30.25,WSW,258,3.0,3.0,89,0.00,CLR,,0.00,5.0,WeatherDisplay:10.37,2013-07-11 21:01:00,
2013-07-11 22:06:00,65.2,61.9,30.25,North,0,4.6,4.6,89,0.00,CLR,,0.00,5.0,WeatherDisplay:10.37,2013-07-11 21:06:00,
2013-07-11 22:11:00,64.8,61.8,30.25,West,274,6.9,6.9,90,0.00,CLR,,0.00,0.0,WeatherDisplay:10.37,2013-07-11 21:11:00,
2013-07-11 22:16:00,64.7,61.7,30.25,SW,219,2.3,2.3,90,0.00,CLR,,0.00,0.0,WeatherDisplay:10.37,2013-07-11 21:16:00,
2013-07-11 22:21:00,64.3,61.3,30.25,SW,236,2.3,2.3,90,0.00,CLR,,0.00,0.0,WeatherDisplay:10.37,2013-07-11 21:21:00,
2013-07-11 22:26:00,64.0,61.0,30.25,North,0,3.5,0.0,90,0.00,CLR,,0.00,0.0,WeatherDisplay:10.37,2013-07-11 21:26:00,
2013-07-11 22:31:00,63.9,61.2,30.25,West,267,2.3,0.0,91,0.00,CLR,,0.00,0.0,WeatherDisplay:10.37,2013-07-11 21:31:00,
2013-07-11 22:37:00,63.7,61.0,30.25,WSW,258,1.2,1.2,91,0.00,CLR,,0.00,0.0,WeatherDisplay:10.37,2013-07-11 21:37:00,
2013-07-11 22:42:00,63.5,60.8,30.25,WSW,247,2.0,2.0,91,0.00,CLR,,0.00,0.0,WeatherDisplay:10.37,2013-07-11 21:42:00,
2013-07-11 22:47:00,63.4,60.7,30.25,WSW,239,2.3,2.3,91,0.00,CLR,,0.00,0.0,WeatherDisplay:10.37,2013-07-11 21:47:00,
2013-07-11 22:52:00,63.2,60.8,30.25,West,281,3.5,3.5,92,0.00,CLR,,0.00,0.0,WeatherDisplay:10.37,2013-07-11 21:52:00,
2013-07-11 22:58:00,63.1,60.7,30.26,West,264,2.3,2.3,92,0.00,CLR,,0.00,0.0,WeatherDisplay:10.37,2013-07-11 21:58:00,
2013-07-11 23:03:00,63.1,60.7,30.26,WSW,243,2.3,2.3,92,0.00,CLR,,0.00,0.0,WeatherDisplay:10.37,2013-07-11 22:03:00,
2013-07-11 23:08:00,62.9,60.5,30.25,NNW,344,5.8,5.8,92,0.00,CLR,,0.00,0.0,WeatherDisplay:10.37,2013-07-11 22:08:00,
2013-07-11 23:14:00,62.7,60.3,30.26,NNW,346,2.3,2.3,92,0.00,CLR,,0.00,0.0,WeatherDisplay:10.37,2013-07-11 22:14:00,
2013-07-11 23:20:00,62.6,60.2,30.26,NW,311,8.1,8.1,92,0.00,CLR,,0.00,0.0,WeatherDisplay:10.37,2013-07-11 22:20:00,
2013-07-11 23:25:00,62.6,60.2,30.26,West,264,2.3,2.3,92,0.00,CLR,,0.00,0.0,WeatherDisplay:10.37,2013-07-11 22:25:00,
2013-07-11 23:31:00,62.4,60.3,30.26,West,272,0.0,0.0,93,0.00,CLR,,0.00,0.0,WeatherDisplay:10.37,2013-07-11 22:31:00,
2013-07-11 23:36:00,62.3,60.2,30.26,WNW,288,2.3,2.3,93,0.00,CLR,,0.00,0.0,WeatherDisplay:10.37,2013-07-11 22:36:00,
2013-07-11 23:41:00,62.1,60.1,30.26,WSW,246,3.5,0.0,93,0.00,CLR,,0.00,0.0,WeatherDisplay:10.37,2013-07-11 22:41:00,
2013-07-11 23:46:00,62.0,60.0,30.26,WSW,237,2.3,2.3,93,0.00,CLR,,0.00,0.0,WeatherDisplay:10.37,2013-07-11 22:46:00,
2013-07-11 23:52:00,61.8,59.8,30.26,WSW,244,3.5,3.5,93,0.00,CLR,,0.00,0.0,WeatherDisplay:10.37,2013-07-11 22:52:00,
2013-07-11 23:57:00,61.8,59.8,30.26,WNW,285,2.3,2.3,93,0.00,CLR,,0.00,0.0,WeatherDisplay:10.37,2013-07-11 22:57:00,